sensor_id;sensor_type;location;lat;lon;timestamp;pressure;altitude;pressure_sealevel;temperature;humidity
73073;BME280;61260;51.090;-1.786;2022-08-16T00:01:17;99894.70;;;19.30;74.59
73073;BME280;61260;51.090;-1.786;2022-08-16T00:03:45;99894.05;;;19.30;74.57
73073;BME280;61260;51.090;-1.786;2022-08-16T00:06:13;99897.64;;;19.28;74.60
73073;BME280;61260;51.090;-1.786;2022-08-16T00:08:41;99894.00;;;19.24;75.15
73073;BME280;61260;51.090;-1.786;2022-08-16T00:11:10;99889.56;;;19.16;75.22
73073;BME280;61260;51.090;-1.786;2022-08-16T00:13:38;99889.84;;;19.08;75.76
73073;BME280;61260;51.090;-1.786;2022-08-16T00:16:05;99892.23;;;19.01;75.63
73073;BME280;61260;51.090;-1.786;2022-08-16T00:18:33;99896.06;;;18.97;75.89
73073;BME280;61260;51.090;-1.786;2022-08-16T00:21:00;99893.66;;;18.95;75.91
73073;BME280;61260;51.090;-1.786;2022-08-16T00:23:28;99891.84;;;18.89;76.21
73073;BME280;61260;51.090;-1.786;2022-08-16T00:25:56;99891.25;;;18.85;76.18
73073;BME280;61260;51.090;-1.786;2022-08-16T00:28:24;99895.95;;;18.82;76.44
73073;BME280;61260;51.090;-1.786;2022-08-16T00:30:51;99898.16;;;18.78;76.67
73073;BME280;61260;51.090;-1.786;2022-08-16T00:33:19;99906.05;;;18.73;76.90
73073;BME280;61260;51.090;-1.786;2022-08-16T00:35:47;99912.60;;;18.68;77.72
73073;BME280;61260;51.090;-1.786;2022-08-16T00:38:14;99910.19;;;18.63;78.08
73073;BME280;61260;51.090;-1.786;2022-08-16T00:40:45;99912.48;;;18.57;79.33
73073;BME280;61260;51.090;-1.786;2022-08-16T00:43:16;99906.66;;;18.55;78.56
73073;BME280;61260;51.090;-1.786;2022-08-16T00:45:49;99902.81;;;18.54;78.96
73073;BME280;61260;51.090;-1.786;2022-08-16T00:48:20;99902.45;;;18.51;79.64
73073;BME280;61260;51.090;-1.786;2022-08-16T00:50:47;99894.95;;;18.52;79.21
73073;BME280;61260;51.090;-1.786;2022-08-16T00:53:16;99888.41;;;18.54;79.15
73073;BME280;61260;51.090;-1.786;2022-08-16T00:55:48;99880.30;;;18.58;79.20
73073;BME280;61260;51.090;-1.786;2022-08-16T00:58:18;99886.05;;;18.60;78.89
73073;BME280;61260;51.090;-1.786;2022-08-16T01:00:47;99883.58;;;18.62;78.83
73073;BME280;61260;51.090;-1.786;2022-08-16T01:03:18;99886.80;;;18.62;79.02
73073;BME280;61260;51.090;-1.786;2022-08-16T01:05:47;99884.45;;;18.62;79.02
73073;BME280;61260;51.090;-1.786;2022-08-16T01:08:17;99885.00;;;18.63;79.10
73073;BME280;61260;51.090;-1.786;2022-08-16T01:10:46;99880.46;;;18.64;79.02
73073;BME280;61260;51.090;-1.786;2022-08-16T01:13:16;99878.08;;;18.66;79.06
73073;BME280;61260;51.090;-1.786;2022-08-16T01:15:47;99878.08;;;18.65;79.14
73073;BME280;61260;51.090;-1.786;2022-08-16T01:18:20;99876.81;;;18.65;79.64
73073;BME280;61260;51.090;-1.786;2022-08-16T01:20:53;99875.08;;;18.65;79.51
73073;BME280;61260;51.090;-1.786;2022-08-16T01:23:28;99877.05;;;18.66;79.57
73073;BME280;61260;51.090;-1.786;2022-08-16T01:26:01;99883.74;;;18.69;79.64
73073;BME280;61260;51.090;-1.786;2022-08-16T01:28:30;99884.42;;;18.70;79.87
73073;BME280;61260;51.090;-1.786;2022-08-16T01:30:58;99883.60;;;18.73;79.81
73073;BME280;61260;51.090;-1.786;2022-08-16T01:33:26;99876.09;;;18.74;79.97
73073;BME280;61260;51.090;-1.786;2022-08-16T01:35:56;99873.23;;;18.74;79.90
73073;BME280;61260;51.090;-1.786;2022-08-16T01:38:28;99864.41;;;18.72;79.86
73073;BME280;61260;51.090;-1.786;2022-08-16T01:40:58;99863.02;;;18.70;79.73
73073;BME280;61260;51.090;-1.786;2022-08-16T01:43:27;99864.23;;;18.73;80.35
73073;BME280;61260;51.090;-1.786;2022-08-16T01:45:56;99865.26;;;18.73;80.14
73073;BME280;61260;51.090;-1.786;2022-08-16T01:48:26;99870.23;;;18.74;80.25
73073;BME280;61260;51.090;-1.786;2022-08-16T01:50:55;99863.45;;;18.73;80.18
73073;BME280;61260;51.090;-1.786;2022-08-16T01:53:23;99858.83;;;18.70;80.38
73073;BME280;61260;51.090;-1.786;2022-08-16T01:55:52;99854.90;;;18.68;80.61
73073;BME280;61260;51.090;-1.786;2022-08-16T01:58:21;99853.86;;;18.69;80.47
73073;BME280;61260;51.090;-1.786;2022-08-16T02:00:49;99854.02;;;18.74;80.36
73073;BME280;61260;51.090;-1.786;2022-08-16T02:03:17;99859.16;;;18.74;80.75
73073;BME280;61260;51.090;-1.786;2022-08-16T02:05:45;99862.48;;;18.73;80.50
73073;BME280;61260;51.090;-1.786;2022-08-16T02:08:13;99868.25;;;18.75;80.43
73073;BME280;61260;51.090;-1.786;2022-08-16T02:10:41;99876.88;;;18.79;80.32
73073;BME280;61260;51.090;-1.786;2022-08-16T02:13:09;99883.61;;;18.84;80.28
73073;BME280;61260;51.090;-1.786;2022-08-16T02:15:37;99879.77;;;18.88;80.44
73073;BME280;61260;51.090;-1.786;2022-08-16T02:18:08;99881.95;;;18.91;80.33
73073;BME280;61260;51.090;-1.786;2022-08-16T02:20:37;99878.50;;;18.94;80.24
73073;BME280;61260;51.090;-1.786;2022-08-16T02:23:06;99874.99;;;18.95;80.29
73073;BME280;61260;51.090;-1.786;2022-08-16T02:25:34;99875.77;;;18.96;80.65
73073;BME280;61260;51.090;-1.786;2022-08-16T02:28:02;99874.85;;;18.99;80.81
73073;BME280;61260;51.090;-1.786;2022-08-16T02:30:30;99870.27;;;19.05;80.52
73073;BME280;61260;51.090;-1.786;2022-08-16T02:32:59;99875.63;;;19.11;80.79
73073;BME280;61260;51.090;-1.786;2022-08-16T02:35:27;99873.27;;;19.16;81.35
73073;BME280;61260;51.090;-1.786;2022-08-16T02:37:54;99874.81;;;19.21;81.00
73073;BME280;61260;51.090;-1.786;2022-08-16T02:40:23;99874.25;;;19.22;81.02
73073;BME280;61260;51.090;-1.786;2022-08-16T02:42:52;99864.75;;;19.23;80.79
73073;BME280;61260;51.090;-1.786;2022-08-16T02:45:23;99862.45;;;19.22;80.65
73073;BME280;61260;51.090;-1.786;2022-08-16T02:47:52;99857.13;;;19.18;80.66
73073;BME280;61260;51.090;-1.786;2022-08-16T02:50:20;99854.40;;;19.14;80.44
73073;BME280;61260;51.090;-1.786;2022-08-16T02:52:47;99849.65;;;19.09;80.36
73073;BME280;61260;51.090;-1.786;2022-08-16T02:55:16;99841.29;;;19.03;80.46
73073;BME280;61260;51.090;-1.786;2022-08-16T02:57:44;99837.95;;;18.99;80.11
73073;BME280;61260;51.090;-1.786;2022-08-16T03:00:14;99833.17;;;18.95;80.24
73073;BME280;61260;51.090;-1.786;2022-08-16T03:02:42;99833.17;;;18.90;80.25
73073;BME280;61260;51.090;-1.786;2022-08-16T03:05:11;99826.84;;;18.85;80.25
73073;BME280;61260;51.090;-1.786;2022-08-16T03:07:40;99831.07;;;18.82;80.36
73073;BME280;61260;51.090;-1.786;2022-08-16T03:10:10;99832.27;;;18.80;80.36
73073;BME280;61260;51.090;-1.786;2022-08-16T03:12:39;99829.98;;;18.76;80.27
73073;BME280;61260;51.090;-1.786;2022-08-16T03:15:08;99833.91;;;18.72;80.74
73073;BME280;61260;51.090;-1.786;2022-08-16T03:17:37;99829.23;;;18.68;80.79
73073;BME280;61260;51.090;-1.786;2022-08-16T03:20:07;99831.44;;;18.67;80.85
73073;BME280;61260;51.090;-1.786;2022-08-16T03:22:36;99836.71;;;18.63;80.76
73073;BME280;61260;51.090;-1.786;2022-08-16T03:25:08;99835.80;;;18.60;80.63
73073;BME280;61260;51.090;-1.786;2022-08-16T03:27:37;99835.82;;;18.59;80.62
73073;BME280;61260;51.090;-1.786;2022-08-16T03:30:08;99834.57;;;18.57;80.49
73073;BME280;61260;51.090;-1.786;2022-08-16T03:32:37;99834.21;;;18.54;80.79
73073;BME280;61260;51.090;-1.786;2022-08-16T03:35:06;99836.98;;;18.54;81.06
73073;BME280;61260;51.090;-1.786;2022-08-16T03:37:34;99842.45;;;18.52;81.87
73073;BME280;61260;51.090;-1.786;2022-08-16T03:40:03;99849.11;;;18.52;81.43
73073;BME280;61260;51.090;-1.786;2022-08-16T03:42:31;99851.56;;;18.51;81.15
73073;BME280;61260;51.090;-1.786;2022-08-16T03:44:58;99856.33;;;18.47;81.27
73073;BME280;61260;51.090;-1.786;2022-08-16T03:47:27;99859.68;;;18.45;81.23
73073;BME280;61260;51.090;-1.786;2022-08-16T03:49:55;99860.49;;;18.43;81.99
73073;BME280;61260;51.090;-1.786;2022-08-16T03:52:24;99861.84;;;18.43;81.83
73073;BME280;61260;51.090;-1.786;2022-08-16T03:54:52;99858.35;;;18.44;81.62
73073;BME280;61260;51.090;-1.786;2022-08-16T03:57:20;99854.81;;;18.44;81.86
73073;BME280;61260;51.090;-1.786;2022-08-16T03:59:47;99853.61;;;18.44;82.11
73073;BME280;61260;51.090;-1.786;2022-08-16T04:02:15;99856.06;;;18.43;81.77
73073;BME280;61260;51.090;-1.786;2022-08-16T04:04:45;99859.48;;;18.42;81.59
73073;BME280;61260;51.090;-1.786;2022-08-16T04:07:12;99857.45;;;18.41;81.58
73073;BME280;61260;51.090;-1.786;2022-08-16T04:09:40;99860.69;;;18.42;81.60
73073;BME280;61260;51.090;-1.786;2022-08-16T04:12:09;99859.27;;;18.41;81.59
73073;BME280;61260;51.090;-1.786;2022-08-16T04:14:37;99857.67;;;18.42;81.56
73073;BME280;61260;51.090;-1.786;2022-08-16T04:17:05;99858.14;;;18.43;81.54
73073;BME280;61260;51.090;-1.786;2022-08-16T04:19:33;99859.09;;;18.43;81.48
73073;BME280;61260;51.090;-1.786;2022-08-16T04:22:01;99860.76;;;18.43;81.51
73073;BME280;61260;51.090;-1.786;2022-08-16T04:24:29;99862.27;;;18.41;81.45
73073;BME280;61260;51.090;-1.786;2022-08-16T04:26:56;99857.86;;;18.40;81.54
73073;BME280;61260;51.090;-1.786;2022-08-16T04:29:24;99853.30;;;18.38;81.60
73073;BME280;61260;51.090;-1.786;2022-08-16T04:31:53;99850.04;;;18.33;81.72
73073;BME280;61260;51.090;-1.786;2022-08-16T04:34:22;99848.27;;;18.29;81.70
73073;BME280;61260;51.090;-1.786;2022-08-16T04:36:50;99847.71;;;18.28;81.68
73073;BME280;61260;51.090;-1.786;2022-08-16T04:39:18;99850.02;;;18.28;81.64
73073;BME280;61260;51.090;-1.786;2022-08-16T04:41:45;99853.34;;;18.24;81.57
73073;BME280;61260;51.090;-1.786;2022-08-16T04:44:13;99856.60;;;18.23;81.94
73073;BME280;61260;51.090;-1.786;2022-08-16T04:46:41;99861.84;;;18.21;81.97
73073;BME280;61260;51.090;-1.786;2022-08-16T04:49:08;99864.55;;;18.19;82.02
73073;BME280;61260;51.090;-1.786;2022-08-16T04:51:37;99866.30;;;18.18;82.26
73073;BME280;61260;51.090;-1.786;2022-08-16T04:54:08;99863.65;;;18.16;82.47
73073;BME280;61260;51.090;-1.786;2022-08-16T04:56:36;99862.16;;;18.13;82.66
73073;BME280;61260;51.090;-1.786;2022-08-16T04:59:05;99861.45;;;18.12;82.73
73073;BME280;61260;51.090;-1.786;2022-08-16T05:01:34;99865.11;;;18.11;82.83
73073;BME280;61260;51.090;-1.786;2022-08-16T05:04:02;99862.81;;;18.11;82.67
73073;BME280;61260;51.090;-1.786;2022-08-16T05:06:30;99864.56;;;18.10;82.71
73073;BME280;61260;51.090;-1.786;2022-08-16T05:09:00;99868.89;;;18.11;82.81
73073;BME280;61260;51.090;-1.786;2022-08-16T05:11:27;99872.20;;;18.11;82.81
73073;BME280;61260;51.090;-1.786;2022-08-16T05:13:56;99876.80;;;18.10;82.94
73073;BME280;61260;51.090;-1.786;2022-08-16T05:16:29;99873.42;;;18.09;82.83
73073;BME280;61260;51.090;-1.786;2022-08-16T05:18:58;99868.73;;;18.11;82.95
73073;BME280;61260;51.090;-1.786;2022-08-16T05:21:29;99867.52;;;18.14;82.68
73073;BME280;61260;51.090;-1.786;2022-08-16T05:23:58;99874.52;;;18.17;82.58
73073;BME280;61260;51.090;-1.786;2022-08-16T05:26:27;99882.52;;;18.16;82.86
73073;BME280;61260;51.090;-1.786;2022-08-16T05:28:56;99886.40;;;18.15;82.76
73073;BME280;61260;51.090;-1.786;2022-08-16T05:31:26;99885.82;;;18.18;82.74
73073;BME280;61260;51.090;-1.786;2022-08-16T05:33:54;99890.12;;;18.20;82.57
73073;BME280;61260;51.090;-1.786;2022-08-16T05:36:22;99895.16;;;18.22;82.63
73073;BME280;61260;51.090;-1.786;2022-08-16T05:38:49;99893.02;;;18.22;82.61
73073;BME280;61260;51.090;-1.786;2022-08-16T05:41:17;99892.45;;;18.25;82.48
73073;BME280;61260;51.090;-1.786;2022-08-16T05:43:44;99894.65;;;18.27;82.44
73073;BME280;61260;51.090;-1.786;2022-08-16T05:46:15;99896.43;;;18.30;82.45
73073;BME280;61260;51.090;-1.786;2022-08-16T05:48:45;99899.82;;;18.33;82.54
73073;BME280;61260;51.090;-1.786;2022-08-16T05:51:12;99899.20;;;18.31;82.43
73073;BME280;61260;51.090;-1.786;2022-08-16T05:53:40;99898.40;;;18.32;82.84
73073;BME280;61260;51.090;-1.786;2022-08-16T05:56:08;99901.08;;;18.33;82.69
73073;BME280;61260;51.090;-1.786;2022-08-16T05:58:36;99897.39;;;18.37;82.57
73073;BME280;61260;51.090;-1.786;2022-08-16T06:01:05;99902.63;;;18.41;82.64
73073;BME280;61260;51.090;-1.786;2022-08-16T06:03:32;99902.25;;;18.47;82.41
73073;BME280;61260;51.090;-1.786;2022-08-16T06:06:00;99904.95;;;18.53;82.34
73073;BME280;61260;51.090;-1.786;2022-08-16T06:08:28;99904.07;;;18.60;82.29
73073;BME280;61260;51.090;-1.786;2022-08-16T06:10:56;99909.52;;;18.65;82.05
73073;BME280;61260;51.090;-1.786;2022-08-16T06:13:23;99914.42;;;18.66;81.93
73073;BME280;61260;51.090;-1.786;2022-08-16T06:15:51;99919.80;;;18.67;81.94
73073;BME280;61260;51.090;-1.786;2022-08-16T06:18:20;99928.18;;;18.66;82.08
73073;BME280;61260;51.090;-1.786;2022-08-16T06:20:48;99934.02;;;18.66;82.15
73073;BME280;61260;51.090;-1.786;2022-08-16T06:23:15;99944.44;;;18.68;82.17
73073;BME280;61260;51.090;-1.786;2022-08-16T06:25:43;99952.98;;;18.68;82.07
73073;BME280;61260;51.090;-1.786;2022-08-16T06:28:11;99958.70;;;18.72;81.96
73073;BME280;61260;51.090;-1.786;2022-08-16T06:30:39;99969.45;;;18.71;81.97
73073;BME280;61260;51.090;-1.786;2022-08-16T06:33:07;99974.95;;;18.69;82.17
73073;BME280;61260;51.090;-1.786;2022-08-16T06:35:36;99981.43;;;18.68;82.32
73073;BME280;61260;51.090;-1.786;2022-08-16T06:38:03;99989.64;;;18.68;82.22
73073;BME280;61260;51.090;-1.786;2022-08-16T06:40:31;99987.02;;;18.70;82.15
73073;BME280;61260;51.090;-1.786;2022-08-16T06:43:00;99986.88;;;18.75;82.22
73073;BME280;61260;51.090;-1.786;2022-08-16T06:45:27;99977.92;;;18.84;82.40
73073;BME280;61260;51.090;-1.786;2022-08-16T06:47:55;99977.55;;;18.89;81.94
73073;BME280;61260;51.090;-1.786;2022-08-16T06:50:23;99980.51;;;18.92;81.67
73073;BME280;61260;51.090;-1.786;2022-08-16T06:52:51;99982.54;;;19.00;81.83
73073;BME280;61260;51.090;-1.786;2022-08-16T06:55:18;99981.77;;;19.10;81.66
73073;BME280;61260;51.090;-1.786;2022-08-16T06:57:46;99983.89;;;19.20;81.37
73073;BME280;61260;51.090;-1.786;2022-08-16T07:00:15;99986.43;;;19.32;81.19
73073;BME280;61260;51.090;-1.786;2022-08-16T07:02:43;99988.05;;;19.45;80.79
73073;BME280;61260;51.090;-1.786;2022-08-16T07:05:13;99991.38;;;19.56;80.72
73073;BME280;61260;51.090;-1.786;2022-08-16T07:07:41;99986.56;;;19.71;80.16
73073;BME280;61260;51.090;-1.786;2022-08-16T07:10:09;99986.41;;;19.82;80.09
73073;BME280;61260;51.090;-1.786;2022-08-16T07:12:37;99985.58;;;19.89;80.05
73073;BME280;61260;51.090;-1.786;2022-08-16T07:15:07;99987.48;;;19.98;80.07
73073;BME280;61260;51.090;-1.786;2022-08-16T07:17:35;99983.64;;;20.12;79.93
73073;BME280;61260;51.090;-1.786;2022-08-16T07:20:04;99988.86;;;20.26;79.24
73073;BME280;61260;51.090;-1.786;2022-08-16T07:22:33;99990.98;;;20.36;79.22
73073;BME280;61260;51.090;-1.786;2022-08-16T07:25:00;99985.95;;;20.46;78.69
73073;BME280;61260;51.090;-1.786;2022-08-16T07:27:28;99995.61;;;20.51;78.40
73073;BME280;61260;51.090;-1.786;2022-08-16T07:29:56;99997.52;;;20.50;77.93
73073;BME280;61260;51.090;-1.786;2022-08-16T07:32:23;99999.77;;;20.53;77.69
73073;BME280;61260;51.090;-1.786;2022-08-16T07:34:52;100006.87;;;20.51;77.51
73073;BME280;61260;51.090;-1.786;2022-08-16T07:37:20;100007.98;;;20.47;77.39
73073;BME280;61260;51.090;-1.786;2022-08-16T07:39:47;100004.56;;;20.47;77.37
73073;BME280;61260;51.090;-1.786;2022-08-16T07:42:15;100007.80;;;20.48;77.48
73073;BME280;61260;51.090;-1.786;2022-08-16T07:44:43;100003.63;;;20.46;77.13
73073;BME280;61260;51.090;-1.786;2022-08-16T07:47:10;100007.25;;;20.47;77.30
73073;BME280;61260;51.090;-1.786;2022-08-16T07:49:38;99995.66;;;20.52;77.11
73073;BME280;61260;51.090;-1.786;2022-08-16T07:52:05;99993.30;;;20.60;76.74
73073;BME280;61260;51.090;-1.786;2022-08-16T07:54:33;99991.89;;;20.68;76.57
73073;BME280;61260;51.090;-1.786;2022-08-16T07:57:01;99992.09;;;20.78;76.27
73073;BME280;61260;51.090;-1.786;2022-08-16T07:59:28;99985.20;;;20.91;75.57
73073;BME280;61260;51.090;-1.786;2022-08-16T08:01:56;99979.49;;;21.02;74.96
73073;BME280;61260;51.090;-1.786;2022-08-16T08:04:24;99978.88;;;21.12;74.45
73073;BME280;61260;51.090;-1.786;2022-08-16T08:06:52;99976.63;;;21.25;74.08
73073;BME280;61260;51.090;-1.786;2022-08-16T08:09:20;99973.68;;;21.36;73.59
73073;BME280;61260;51.090;-1.786;2022-08-16T08:11:48;99972.93;;;21.44;72.90
73073;BME280;61260;51.090;-1.786;2022-08-16T08:14:16;99978.66;;;21.51;72.46
73073;BME280;61260;51.090;-1.786;2022-08-16T08:16:43;99978.77;;;21.56;72.18
73073;BME280;61260;51.090;-1.786;2022-08-16T08:19:11;99983.12;;;21.62;72.11
73073;BME280;61260;51.090;-1.786;2022-08-16T08:21:40;99987.70;;;21.73;71.63
73073;BME280;61260;51.090;-1.786;2022-08-16T08:24:09;99992.70;;;21.79;70.92
73073;BME280;61260;51.090;-1.786;2022-08-16T08:26:38;99989.99;;;21.79;70.99
73073;BME280;61260;51.090;-1.786;2022-08-16T08:29:07;99999.52;;;21.87;70.82
73073;BME280;61260;51.090;-1.786;2022-08-16T08:31:35;100006.56;;;21.88;70.38
73073;BME280;61260;51.090;-1.786;2022-08-16T08:34:03;100016.06;;;21.86;70.04
73073;BME280;61260;51.090;-1.786;2022-08-16T08:36:33;100020.33;;;21.87;70.39
73073;BME280;61260;51.090;-1.786;2022-08-16T08:39:04;100019.83;;;21.92;69.80
73073;BME280;61260;51.090;-1.786;2022-08-16T08:41:32;100023.42;;;21.97;69.74
73073;BME280;61260;51.090;-1.786;2022-08-16T08:43:59;100027.60;;;22.08;69.52
73073;BME280;61260;51.090;-1.786;2022-08-16T08:46:27;100031.52;;;22.27;69.24
73073;BME280;61260;51.090;-1.786;2022-08-16T08:48:55;100034.39;;;22.49;68.67
73073;BME280;61260;51.090;-1.786;2022-08-16T08:51:23;100039.58;;;22.72;67.20
73073;BME280;61260;51.090;-1.786;2022-08-16T08:53:51;100031.80;;;22.86;67.04
73073;BME280;61260;51.090;-1.786;2022-08-16T08:56:19;100026.26;;;22.99;67.04
73073;BME280;61260;51.090;-1.786;2022-08-16T08:58:47;100030.13;;;23.15;66.14
73073;BME280;61260;51.090;-1.786;2022-08-16T09:01:17;100027.06;;;23.28;65.32
73073;BME280;61260;51.090;-1.786;2022-08-16T09:03:46;100023.30;;;23.39;64.53
73073;BME280;61260;51.090;-1.786;2022-08-16T09:06:14;100022.29;;;23.46;63.60
73073;BME280;61260;51.090;-1.786;2022-08-16T09:08:42;100018.11;;;23.50;63.41
73073;BME280;61260;51.090;-1.786;2022-08-16T09:11:10;100017.42;;;23.52;63.29
73073;BME280;61260;51.090;-1.786;2022-08-16T09:13:38;100021.95;;;23.52;62.39
73073;BME280;61260;51.090;-1.786;2022-08-16T09:16:06;100026.33;;;23.52;62.92
73073;BME280;61260;51.090;-1.786;2022-08-16T09:18:34;100037.45;;;23.64;62.66
73073;BME280;61260;51.090;-1.786;2022-08-16T09:21:02;100046.62;;;23.73;62.15
73073;BME280;61260;51.090;-1.786;2022-08-16T09:23:33;100045.64;;;23.85;61.21
73073;BME280;61260;51.090;-1.786;2022-08-16T09:26:01;100051.87;;;23.92;60.58
73073;BME280;61260;51.090;-1.786;2022-08-16T09:28:29;100055.15;;;23.92;59.62
73073;BME280;61260;51.090;-1.786;2022-08-16T09:30:57;100056.21;;;23.89;59.11
73073;BME280;61260;51.090;-1.786;2022-08-16T09:33:25;100057.90;;;23.88;59.90
73073;BME280;61260;51.090;-1.786;2022-08-16T09:35:53;100062.86;;;23.85;59.56
73073;BME280;61260;51.090;-1.786;2022-08-16T09:38:21;100065.25;;;23.79;60.30
73073;BME280;61260;51.090;-1.786;2022-08-16T09:40:50;100066.96;;;23.75;60.62
73073;BME280;61260;51.090;-1.786;2022-08-16T09:43:19;100067.50;;;23.68;60.25
73073;BME280;61260;51.090;-1.786;2022-08-16T09:45:47;100067.09;;;23.58;60.29
73073;BME280;61260;51.090;-1.786;2022-08-16T09:48:15;100073.51;;;23.53;59.97
73073;BME280;61260;51.090;-1.786;2022-08-16T09:50:44;100073.66;;;23.46;59.52
73073;BME280;61260;51.090;-1.786;2022-08-16T09:53:13;100078.52;;;23.35;59.71
73073;BME280;61260;51.090;-1.786;2022-08-16T09:55:42;100081.91;;;23.22;59.97
73073;BME280;61260;51.090;-1.786;2022-08-16T09:58:10;100077.63;;;23.13;60.16
73073;BME280;61260;51.090;-1.786;2022-08-16T10:00:38;100077.42;;;23.08;60.81
73073;BME280;61260;51.090;-1.786;2022-08-16T10:03:05;100076.41;;;22.96;60.72
73073;BME280;61260;51.090;-1.786;2022-08-16T10:05:33;100074.15;;;22.85;61.50
73073;BME280;61260;51.090;-1.786;2022-08-16T10:08:03;100077.41;;;22.73;62.31
73073;BME280;61260;51.090;-1.786;2022-08-16T10:10:31;100075.68;;;22.57;62.54
73073;BME280;61260;51.090;-1.786;2022-08-16T10:12:59;100071.94;;;22.51;63.07
73073;BME280;61260;51.090;-1.786;2022-08-16T10:15:42;100071.70;;;22.51;64.38
73073;BME280;61260;51.090;-1.786;2022-08-16T10:18:11;100072.66;;;22.45;65.25
73073;BME280;61260;51.090;-1.786;2022-08-16T10:20:41;100077.29;;;22.41;65.09
73073;BME280;61260;51.090;-1.786;2022-08-16T10:23:11;100071.75;;;22.46;65.10
73073;BME280;61260;51.090;-1.786;2022-08-16T10:25:41;100078.50;;;22.41;65.46
73073;BME280;61260;51.090;-1.786;2022-08-16T10:28:11;100069.53;;;22.39;65.39
73073;BME280;61260;51.090;-1.786;2022-08-16T10:30:40;100070.06;;;22.43;65.95
73073;BME280;61260;51.090;-1.786;2022-08-16T10:33:10;100067.39;;;22.46;66.51
73073;BME280;61260;51.090;-1.786;2022-08-16T10:35:38;100067.05;;;22.52;66.95
73073;BME280;61260;51.090;-1.786;2022-08-16T10:38:06;100063.60;;;22.60;65.14
73073;BME280;61260;51.090;-1.786;2022-08-16T10:40:34;100061.27;;;22.58;64.62
73073;BME280;61260;51.090;-1.786;2022-08-16T10:43:02;100058.38;;;22.62;64.80
73073;BME280;61260;51.090;-1.786;2022-08-16T10:45:31;100060.86;;;22.76;64.85
73073;BME280;61260;51.090;-1.786;2022-08-16T10:47:59;100062.90;;;22.86;64.59
73073;BME280;61260;51.090;-1.786;2022-08-16T10:50:27;100064.11;;;23.00;65.01
73073;BME280;61260;51.090;-1.786;2022-08-16T10:52:55;100066.77;;;23.11;64.39
73073;BME280;61260;51.090;-1.786;2022-08-16T10:55:24;100066.81;;;23.06;63.94
73073;BME280;61260;51.090;-1.786;2022-08-16T10:57:55;100073.05;;;23.02;64.81
73073;BME280;61260;51.090;-1.786;2022-08-16T11:00:22;100069.38;;;23.02;64.13
73073;BME280;61260;51.090;-1.786;2022-08-16T11:02:50;100072.95;;;22.97;63.27
73073;BME280;61260;51.090;-1.786;2022-08-16T11:05:19;100070.47;;;22.95;63.05
73073;BME280;61260;51.090;-1.786;2022-08-16T11:07:48;100070.67;;;22.96;62.21
73073;BME280;61260;51.090;-1.786;2022-08-16T11:10:23;100068.63;;;22.98;63.05
73073;BME280;61260;51.090;-1.786;2022-08-16T11:12:51;100065.02;;;23.01;63.25
73073;BME280;61260;51.090;-1.786;2022-08-16T11:15:19;100068.20;;;22.96;62.64
73073;BME280;61260;51.090;-1.786;2022-08-16T11:17:47;100063.55;;;22.89;63.30
73073;BME280;61260;51.090;-1.786;2022-08-16T11:20:16;100066.75;;;22.70;63.44
73073;BME280;61260;51.090;-1.786;2022-08-16T11:22:46;100064.33;;;22.50;63.69
73073;BME280;61260;51.090;-1.786;2022-08-16T11:25:25;100065.77;;;22.33;64.05
73073;BME280;61260;51.090;-1.786;2022-08-16T11:27:54;100071.70;;;22.25;65.14
73073;BME280;61260;51.090;-1.786;2022-08-16T11:30:23;100071.91;;;22.26;65.62
73073;BME280;61260;51.090;-1.786;2022-08-16T11:32:51;100086.33;;;22.21;66.37
73073;BME280;61260;51.090;-1.786;2022-08-16T11:35:21;100096.79;;;22.09;66.55
73073;BME280;61260;51.090;-1.786;2022-08-16T11:37:52;100103.90;;;22.01;67.54
73073;BME280;61260;51.090;-1.786;2022-08-16T11:40:23;100110.49;;;21.83;69.53
73073;BME280;61260;51.090;-1.786;2022-08-16T11:42:53;100108.90;;;21.69;70.53
73073;BME280;61260;51.090;-1.786;2022-08-16T11:45:22;100107.71;;;21.56;70.18
73073;BME280;61260;51.090;-1.786;2022-08-16T11:47:52;100108.45;;;21.47;70.63
73073;BME280;61260;51.090;-1.786;2022-08-16T11:50:21;100107.65;;;21.48;71.27
73073;BME280;61260;51.090;-1.786;2022-08-16T11:52:50;100108.85;;;21.59;71.13
73073;BME280;61260;51.090;-1.786;2022-08-16T11:55:19;100111.85;;;21.69;69.14
73073;BME280;61260;51.090;-1.786;2022-08-16T11:57:46;100112.89;;;21.79;68.71
73073;BME280;61260;51.090;-1.786;2022-08-16T12:00:16;100115.27;;;22.08;67.57
73073;BME280;61260;51.090;-1.786;2022-08-16T12:02:44;100106.09;;;22.53;67.01
73073;BME280;61260;51.090;-1.786;2022-08-16T12:05:14;100102.58;;;23.17;65.88
73073;BME280;61260;51.090;-1.786;2022-08-16T12:07:42;100100.99;;;23.67;64.17
73073;BME280;61260;51.090;-1.786;2022-08-16T12:10:12;100097.95;;;24.20;64.31
73073;BME280;61260;51.090;-1.786;2022-08-16T12:12:41;100101.19;;;24.52;62.80
73073;BME280;61260;51.090;-1.786;2022-08-16T12:15:10;100099.48;;;24.77;62.01
73073;BME280;61260;51.090;-1.786;2022-08-16T12:17:38;100097.44;;;24.87;61.47
73073;BME280;61260;51.090;-1.786;2022-08-16T12:20:09;100101.47;;;24.91;60.55
73073;BME280;61260;51.090;-1.786;2022-08-16T12:22:38;100103.48;;;24.86;60.26
73073;BME280;61260;51.090;-1.786;2022-08-16T12:25:08;100103.21;;;24.77;60.60
73073;BME280;61260;51.090;-1.786;2022-08-16T12:27:37;100100.30;;;24.69;60.87
73073;BME280;61260;51.090;-1.786;2022-08-16T12:30:06;100104.07;;;24.57;60.75
73073;BME280;61260;51.090;-1.786;2022-08-16T12:32:34;100098.92;;;24.53;59.84
73073;BME280;61260;51.090;-1.786;2022-08-16T12:35:04;100101.85;;;24.46;59.75
73073;BME280;61260;51.090;-1.786;2022-08-16T12:37:33;100099.09;;;24.43;59.62
73073;BME280;61260;51.090;-1.786;2022-08-16T12:40:02;100101.08;;;24.34;60.05
73073;BME280;61260;51.090;-1.786;2022-08-16T12:42:32;100099.27;;;24.37;59.43
73073;BME280;61260;51.090;-1.786;2022-08-16T12:45:00;100103.03;;;24.49;59.32
73073;BME280;61260;51.090;-1.786;2022-08-16T12:47:28;100097.84;;;24.64;58.76
73073;BME280;61260;51.090;-1.786;2022-08-16T12:50:14;100091.57;;;24.75;57.49
73073;BME280;61260;51.090;-1.786;2022-08-16T12:52:42;100090.66;;;24.87;57.81